sensor_id;sensor_type;location;lat;lon;timestamp;P1;durP1;ratioP1;P2;durP2;ratioP2
19733;SDS011;10018;51.230;7.860;2022-11-06T00:01:05;21.47;;;11.17;;
19733;SDS011;10018;51.230;7.860;2022-11-06T00:03:32;22.47;;;13.00;;
19733;SDS011;10018;51.230;7.860;2022-11-06T00:05:58;25.23;;;17.17;;
19733;SDS011;10018;51.230;7.860;2022-11-06T00:08:42;24.37;;;12.00;;
19733;SDS011;10018;51.230;7.860;2022-11-06T00:11:12;20.30;;;10.17;;
19733;SDS011;10018;51.230;7.860;2022-11-06T00:13:39;25.30;;;14.07;;
19733;SDS011;10018;51.230;7.860;2022-11-06T00:16:06;22.90;;;12.17;;
19733;SDS011;10018;51.230;7.860;2022-11-06T00:18:34;27.27;;;13.17;;
19733;SDS011;10018;51.230;7.860;2022-11-06T00:21:07;20.80;;;11.63;;
19733;SDS011;10018;51.230;7.860;2022-11-06T00:23:34;26.57;;;15.50;;
19733;SDS011;10018;51.230;7.860;2022-11-06T00:26:03;19.67;;;11.30;;
19733;SDS011;10018;51.230;7.860;2022-11-06T00:28:29;18.67;;;10.90;;
19733;SDS011;10018;51.230;7.860;2022-11-06T00:31:08;21.80;;;9.63;;
19733;SDS011;10018;51.230;7.860;2022-11-06T00:33:36;19.00;;;11.97;;
19733;SDS011;10018;51.230;7.860;2022-11-06T00:36:03;19.30;;;11.43;;
19733;SDS011;10018;51.230;7.860;2022-11-06T00:38:30;24.20;;;14.77;;
19733;SDS011;10018;51.230;7.860;2022-11-06T00:40:55;16.93;;;9.17;;
19733;SDS011;10018;51.230;7.860;2022-11-06T00:43:21;28.47;;;17.00;;
19733;SDS011;10018;51.230;7.860;2022-11-06T00:45:46;17.93;;;8.70;;
19733;SDS011;10018;51.230;7.860;2022-11-06T00:48:12;57.13;;;30.07;;
19733;SDS011;10018;51.230;7.860;2022-11-06T00:50:37;18.53;;;8.73;;
19733;SDS011;10018;51.230;7.860;2022-11-06T00:53:03;15.43;;;8.57;;
19733;SDS011;10018;51.230;7.860;2022-11-06T00:55:28;17.43;;;8.90;;
19733;SDS011;10018;51.230;7.860;2022-11-06T00:57:54;43.70;;;22.33;;
19733;SDS011;10018;51.230;7.860;2022-11-06T01:00:20;17.47;;;8.57;;
19733;SDS011;10018;51.230;7.860;2022-11-06T01:02:46;16.07;;;8.60;;
19733;SDS011;10018;51.230;7.860;2022-11-06T01:05:12;18.77;;;8.83;;
19733;SDS011;10018;51.230;7.860;2022-11-06T01:07:38;17.10;;;9.43;;
19733;SDS011;10018;51.230;7.860;2022-11-06T01:10:04;15.13;;;8.40;;
19733;SDS011;10018;51.230;7.860;2022-11-06T01:12:31;14.93;;;8.67;;
19733;SDS011;10018;51.230;7.860;2022-11-06T01:14:57;15.47;;;8.20;;
19733;SDS011;10018;51.230;7.860;2022-11-06T01:17:23;13.33;;;8.27;;
19733;SDS011;10018;51.230;7.860;2022-11-06T01:19:48;19.50;;;8.83;;
19733;SDS011;10018;51.230;7.860;2022-11-06T01:22:14;18.20;;;8.73;;
19733;SDS011;10018;51.230;7.860;2022-11-06T01:24:40;16.53;;;8.27;;
19733;SDS011;10018;51.230;7.860;2022-11-06T01:27:05;14.07;;;7.67;;
19733;SDS011;10018;51.230;7.860;2022-11-06T01:29:31;13.80;;;7.73;;
19733;SDS011;10018;51.230;7.860;2022-11-06T01:31:57;17.10;;;7.93;;
19733;SDS011;10018;51.230;7.860;2022-11-06T01:34:22;16.03;;;8.07;;
19733;SDS011;10018;51.230;7.860;2022-11-06T01:36:48;16.37;;;8.10;;
19733;SDS011;10018;51.230;7.860;2022-11-06T01:39:13;15.23;;;7.90;;
19733;SDS011;10018;51.230;7.860;2022-11-06T01:41:42;13.87;;;7.97;;
19733;SDS011;10018;51.230;7.860;2022-11-06T01:46:56;16.83;;;7.50;;
19733;SDS011;10018;51.230;7.860;2022-11-06T01:49:22;13.53;;;7.00;;
19733;SDS011;10018;51.230;7.860;2022-11-06T01:51:52;12.63;;;7.80;;
19733;SDS011;10018;51.230;7.860;2022-11-06T01:54:21;13.07;;;7.50;;
19733;SDS011;10018;51.230;7.860;2022-11-06T01:56:50;12.10;;;7.30;;
19733;SDS011;10018;51.230;7.860;2022-11-06T01:59:19;13.00;;;6.90;;
19733;SDS011;10018;51.230;7.860;2022-11-06T02:01:47;19.43;;;7.40;;
19733;SDS011;10018;51.230;7.860;2022-11-06T02:04:14;13.97;;;7.70;;
19733;SDS011;10018;51.230;7.860;2022-11-06T02:06:46;13.70;;;7.03;;
19733;SDS011;10018;51.230;7.860;2022-11-06T02:09:12;12.47;;;7.50;;
19733;SDS011;10018;51.230;7.860;2022-11-06T02:11:42;13.13;;;6.90;;
19733;SDS011;10018;51.230;7.860;2022-11-06T02:14:19;13.70;;;7.67;;
19733;SDS011;10018;51.230;7.860;2022-11-06T02:16:59;20.10;;;8.03;;
19733;SDS011;10018;51.230;7.860;2022-11-06T02:22:08;16.67;;;7.50;;
19733;SDS011;10018;51.230;7.860;2022-11-06T02:24:51;13.57;;;6.53;;
19733;SDS011;10018;51.230;7.860;2022-11-06T02:27:37;13.03;;;7.10;;
19733;SDS011;10018;51.230;7.860;2022-11-06T02:30:09;18.23;;;7.53;;
19733;SDS011;10018;51.230;7.860;2022-11-06T02:32:51;15.00;;;6.57;;
19733;SDS011;10018;51.230;7.860;2022-11-06T02:35:22;18.90;;;6.87;;
19733;SDS011;10018;51.230;7.860;2022-11-06T02:37:57;14.30;;;6.63;;
19733;SDS011;10018;51.230;7.860;2022-11-06T02:40:30;16.77;;;7.80;;
19733;SDS011;10018;51.230;7.860;2022-11-06T02:42:59;16.73;;;6.93;;
19733;SDS011;10018;51.230;7.860;2022-11-06T02:45:29;14.17;;;6.60;;
19733;SDS011;10018;51.230;7.860;2022-11-06T02:47:57;12.23;;;6.13;;
19733;SDS011;10018;51.230;7.860;2022-11-06T02:50:25;20.00;;;8.07;;
19733;SDS011;10018;51.230;7.860;2022-11-06T02:52:59;12.83;;;6.47;;
19733;SDS011;10018;51.230;7.860;2022-11-06T02:55:30;14.23;;;6.97;;
19733;SDS011;10018;51.230;7.860;2022-11-06T02:58:10;11.63;;;6.23;;
19733;SDS011;10018;51.230;7.860;2022-11-06T03:00:39;15.23;;;6.70;;
19733;SDS011;10018;51.230;7.860;2022-11-06T03:03:11;17.07;;;6.20;;
19733;SDS011;10018;51.230;7.860;2022-11-06T03:05:46;12.67;;;6.27;;
19733;SDS011;10018;51.230;7.860;2022-11-06T03:08:23;13.93;;;5.83;;
19733;SDS011;10018;51.230;7.860;2022-11-06T03:11:12;14.47;;;6.00;;
19733;SDS011;10018;51.230;7.860;2022-11-06T03:24:41;14.03;;;6.63;;
19733;SDS011;10018;51.230;7.860;2022-11-06T03:27:13;12.90;;;6.60;;
19733;SDS011;10018;51.230;7.860;2022-11-06T03:29:48;15.90;;;6.37;;
19733;SDS011;10018;51.230;7.860;2022-11-06T03:32:28;12.67;;;5.83;;
19733;SDS011;10018;51.230;7.860;2022-11-06T03:37:35;12.07;;;6.37;;
19733;SDS011;10018;51.230;7.860;2022-11-06T03:40:10;14.27;;;5.70;;
19733;SDS011;10018;51.230;7.860;2022-11-06T03:42:39;16.57;;;6.03;;
19733;SDS011;10018;51.230;7.860;2022-11-06T03:45:06;12.77;;;6.03;;
19733;SDS011;10018;51.230;7.860;2022-11-06T03:47:39;11.63;;;5.63;;
19733;SDS011;10018;51.230;7.860;2022-11-06T03:50:18;14.80;;;5.30;;
19733;SDS011;10018;51.230;7.860;2022-11-06T03:53:03;14.57;;;5.17;;
19733;SDS011;10018;51.230;7.860;2022-11-06T03:55:35;13.37;;;5.43;;
19733;SDS011;10018;51.230;7.860;2022-11-06T03:58:09;16.00;;;5.40;;
19733;SDS011;10018;51.230;7.860;2022-11-06T04:00:41;14.07;;;5.70;;
19733;SDS011;10018;51.230;7.860;2022-11-06T04:03:12;10.97;;;5.40;;
19733;SDS011;10018;51.230;7.860;2022-11-06T04:05:46;11.57;;;5.10;;
19733;SDS011;10018;51.230;7.860;2022-11-06T04:08:17;12.73;;;4.60;;
19733;SDS011;10018;51.230;7.860;2022-11-06T04:11:04;11.57;;;4.73;;
19733;SDS011;10018;51.230;7.860;2022-11-06T04:13:51;9.80;;;4.77;;
19733;SDS011;10018;51.230;7.860;2022-11-06T04:16:21;12.03;;;5.17;;
19733;SDS011;10018;51.230;7.860;2022-11-06T04:18:49;15.27;;;4.73;;
19733;SDS011;10018;51.230;7.860;2022-11-06T04:21:17;10.77;;;4.80;;
19733;SDS011;10018;51.230;7.860;2022-11-06T04:24:05;10.77;;;4.80;;
19733;SDS011;10018;51.230;7.860;2022-11-06T04:27:13;8.73;;;4.43;;
19733;SDS011;10018;51.230;7.860;2022-11-06T04:29:52;13.03;;;4.47;;
19733;SDS011;10018;51.230;7.860;2022-11-06T04:41:18;11.07;;;4.73;;
19733;SDS011;10018;51.230;7.860;2022-11-06T04:44:07;15.53;;;5.17;;
19733;SDS011;10018;51.230;7.860;2022-11-06T04:46:36;8.93;;;4.30;;
19733;SDS011;10018;51.230;7.860;2022-11-06T04:49:09;13.90;;;4.90;;
19733;SDS011;10018;51.230;7.860;2022-11-06T04:51:36;10.97;;;5.07;;
19733;SDS011;10018;51.230;7.860;2022-11-06T04:54:03;11.77;;;4.90;;
19733;SDS011;10018;51.230;7.860;2022-11-06T04:56:33;9.93;;;4.40;;
19733;SDS011;10018;51.230;7.860;2022-11-06T04:58:59;9.90;;;4.20;;
19733;SDS011;10018;51.230;7.860;2022-11-06T05:01:25;11.00;;;4.13;;
19733;SDS011;10018;51.230;7.860;2022-11-06T05:03:51;16.97;;;4.50;;
19733;SDS011;10018;51.230;7.860;2022-11-06T05:06:16;10.70;;;5.20;;
19733;SDS011;10018;51.230;7.860;2022-11-06T05:08:42;10.27;;;4.43;;
19733;SDS011;10018;51.230;7.860;2022-11-06T05:11:08;14.63;;;5.03;;
19733;SDS011;10018;51.230;7.860;2022-11-06T05:13:33;15.50;;;5.90;;
19733;SDS011;10018;51.230;7.860;2022-11-06T05:15:59;12.60;;;5.90;;
19733;SDS011;10018;51.230;7.860;2022-11-06T05:18:25;15.27;;;5.17;;
19733;SDS011;10018;51.230;7.860;2022-11-06T05:20:51;10.60;;;4.33;;
19733;SDS011;10018;51.230;7.860;2022-11-06T05:23:36;11.93;;;4.00;;
19733;SDS011;10018;51.230;7.860;2022-11-06T05:26:02;10.13;;;4.37;;
19733;SDS011;10018;51.230;7.860;2022-11-06T05:28:31;7.63;;;4.20;;
19733;SDS011;10018;51.230;7.860;2022-11-06T05:30:57;8.50;;;3.80;;
19733;SDS011;10018;51.230;7.860;2022-11-06T05:33:23;21.07;;;8.37;;
19733;SDS011;10018;51.230;7.860;2022-11-06T05:35:49;9.50;;;4.30;;
19733;SDS011;10018;51.230;7.860;2022-11-06T05:38:15;7.93;;;3.73;;
19733;SDS011;10018;51.230;7.860;2022-11-06T05:40:40;10.23;;;3.60;;
19733;SDS011;10018;51.230;7.860;2022-11-06T05:43:06;11.53;;;4.50;;
19733;SDS011;10018;51.230;7.860;2022-11-06T05:45:31;10.60;;;3.93;;
19733;SDS011;10018;51.230;7.860;2022-11-06T05:47:57;8.87;;;3.57;;
19733;SDS011;10018;51.230;7.860;2022-11-06T05:50:22;11.37;;;3.50;;
19733;SDS011;10018;51.230;7.860;2022-11-06T05:52:48;10.93;;;3.83;;
19733;SDS011;10018;51.230;7.860;2022-11-06T05:55:13;10.57;;;3.67;;
19733;SDS011;10018;51.230;7.860;2022-11-06T05:57:39;13.37;;;3.70;;
19733;SDS011;10018;51.230;7.860;2022-11-06T06:00:05;11.00;;;3.63;;
19733;SDS011;10018;51.230;7.860;2022-11-06T06:02:32;9.23;;;3.40;;
19733;SDS011;10018;51.230;7.860;2022-11-06T06:04:57;8.40;;;2.90;;
19733;SDS011;10018;51.230;7.860;2022-11-06T06:07:23;7.07;;;3.43;;
19733;SDS011;10018;51.230;7.860;2022-11-06T06:09:48;7.73;;;3.20;;
19733;SDS011;10018;51.230;7.860;2022-11-06T06:12:14;9.70;;;3.23;;
19733;SDS011;10018;51.230;7.860;2022-11-06T06:14:39;7.67;;;3.47;;
19733;SDS011;10018;51.230;7.860;2022-11-06T06:17:05;8.67;;;3.93;;
19733;SDS011;10018;51.230;7.860;2022-11-06T06:19:31;10.07;;;3.50;;
19733;SDS011;10018;51.230;7.860;2022-11-06T06:21:56;10.40;;;3.67;;
19733;SDS011;10018;51.230;7.860;2022-11-06T06:24:22;8.23;;;3.40;;
19733;SDS011;10018;51.230;7.860;2022-11-06T06:26:48;6.40;;;3.03;;
19733;SDS011;10018;51.230;7.860;2022-11-06T06:29:14;12.60;;;3.47;;
19733;SDS011;10018;51.230;7.860;2022-11-06T06:31:40;8.57;;;2.90;;
19733;SDS011;10018;51.230;7.860;2022-11-06T06:34:05;12.57;;;3.53;;
19733;SDS011;10018;51.230;7.860;2022-11-06T06:36:31;14.13;;;3.87;;
19733;SDS011;10018;51.230;7.860;2022-11-06T06:38:56;10.13;;;3.10;;
19733;SDS011;10018;51.230;7.860;2022-11-06T06:41:22;9.57;;;3.20;;
19733;SDS011;10018;51.230;7.860;2022-11-06T06:43:47;8.67;;;3.13;;
19733;SDS011;10018;51.230;7.860;2022-11-06T06:46:14;10.87;;;3.43;;
19733;SDS011;10018;51.230;7.860;2022-11-06T06:48:39;12.60;;;3.70;;
19733;SDS011;10018;51.230;7.860;2022-11-06T06:51:05;9.10;;;3.40;;
19733;SDS011;10018;51.230;7.860;2022-11-06T06:53:32;11.13;;;3.60;;
19733;SDS011;10018;51.230;7.860;2022-11-06T06:55:59;11.63;;;3.53;;
19733;SDS011;10018;51.230;7.860;2022-11-06T06:58:25;9.93;;;3.20;;
19733;SDS011;10018;51.230;7.860;2022-11-06T07:00:57;10.53;;;3.93;;
19733;SDS011;10018;51.230;7.860;2022-11-06T07:03:27;8.60;;;3.07;;
19733;SDS011;10018;51.230;7.860;2022-11-06T07:05:52;9.30;;;3.40;;
19733;SDS011;10018;51.230;7.860;2022-11-06T07:08:18;10.57;;;3.27;;
19733;SDS011;10018;51.230;7.860;2022-11-06T07:10:43;8.33;;;3.17;;
19733;SDS011;10018;51.230;7.860;2022-11-06T07:13:09;11.10;;;3.27;;
19733;SDS011;10018;51.230;7.860;2022-11-06T07:15:34;8.37;;;3.00;;
19733;SDS011;10018;51.230;7.860;2022-11-06T07:18:01;8.43;;;3.20;;
19733;SDS011;10018;51.230;7.860;2022-11-06T07:20:27;9.13;;;3.10;;
19733;SDS011;10018;51.230;7.860;2022-11-06T07:22:53;11.10;;;2.83;;
19733;SDS011;10018;51.230;7.860;2022-11-06T07:25:18;8.03;;;3.20;;
19733;SDS011;10018;51.230;7.860;2022-11-06T07:27:44;9.17;;;2.77;;
19733;SDS011;10018;51.230;7.860;2022-11-06T07:30:09;9.83;;;3.20;;
19733;SDS011;10018;51.230;7.860;2022-11-06T07:32:35;7.03;;;2.50;;
19733;SDS011;10018;51.230;7.860;2022-11-06T07:35:01;7.83;;;2.60;;
19733;SDS011;10018;51.230;7.860;2022-11-06T07:37:27;9.83;;;2.93;;
19733;SDS011;10018;51.230;7.860;2022-11-06T07:39:52;9.07;;;2.70;;
19733;SDS011;10018;51.230;7.860;2022-11-06T07:42:18;8.77;;;2.60;;
19733;SDS011;10018;51.230;7.860;2022-11-06T07:44:43;10.93;;;2.60;;
19733;SDS011;10018;51.230;7.860;2022-11-06T07:47:09;6.23;;;2.57;;
19733;SDS011;10018;51.230;7.860;2022-11-06T07:49:34;12.33;;;3.37;;
19733;SDS011;10018;51.230;7.860;2022-11-06T07:52:00;7.70;;;2.93;;
19733;SDS011;10018;51.230;7.860;2022-11-06T07:54:25;8.47;;;3.00;;
19733;SDS011;10018;51.230;7.860;2022-11-06T07:56:51;10.90;;;2.77;;
19733;SDS011;10018;51.230;7.860;2022-11-06T07:59:16;10.30;;;3.00;;
19733;SDS011;10018;51.230;7.860;2022-11-06T08:01:42;11.47;;;2.80;;
19733;SDS011;10018;51.230;7.860;2022-11-06T08:04:07;7.70;;;2.70;;
19733;SDS011;10018;51.230;7.860;2022-11-06T08:06:33;5.83;;;2.47;;
19733;SDS011;10018;51.230;7.860;2022-11-06T08:08:59;9.83;;;2.57;;
19733;SDS011;10018;51.230;7.860;2022-11-06T08:11:24;7.73;;;3.10;;
19733;SDS011;10018;51.230;7.860;2022-11-06T08:13:51;8.07;;;2.53;;
19733;SDS011;10018;51.230;7.860;2022-11-06T08:16:16;6.47;;;2.73;;
19733;SDS011;10018;51.230;7.860;2022-11-06T08:18:42;15.17;;;4.53;;
19733;SDS011;10018;51.230;7.860;2022-11-06T08:21:08;8.37;;;3.07;;
19733;SDS011;10018;51.230;7.860;2022-11-06T08:23:34;9.43;;;2.50;;
19733;SDS011;10018;51.230;7.860;2022-11-06T08:26:01;6.80;;;2.73;;
19733;SDS011;10018;51.230;7.860;2022-11-06T08:28:27;7.00;;;2.90;;
19733;SDS011;10018;51.230;7.860;2022-11-06T08:30:53;7.77;;;2.77;;
19733;SDS011;10018;51.230;7.860;2022-11-06T08:33:20;9.40;;;3.10;;
19733;SDS011;10018;51.230;7.860;2022-11-06T08:35:47;10.20;;;2.50;;
19733;SDS011;10018;51.230;7.860;2022-11-06T08:38:12;11.20;;;2.90;;
19733;SDS011;10018;51.230;7.860;2022-11-06T08:40:38;9.97;;;2.60;;
19733;SDS011;10018;51.230;7.860;2022-11-06T08:43:05;7.50;;;3.10;;
19733;SDS011;10018;51.230;7.860;2022-11-06T08:45:39;8.67;;;3.20;;
19733;SDS011;10018;51.230;7.860;2022-11-06T08:48:07;6.67;;;3.00;;
19733;SDS011;10018;51.230;7.860;2022-11-06T08:50:36;7.30;;;3.10;;
19733;SDS011;10018;51.230;7.860;2022-11-06T08:53:04;11.13;;;3.30;;
19733;SDS011;10018;51.230;7.860;2022-11-06T08:55:30;6.83;;;3.20;;
19733;SDS011;10018;51.230;7.860;2022-11-06T08:58:00;6.90;;;3.10;;
19733;SDS011;10018;51.230;7.860;2022-11-06T09:00:26;9.47;;;3.20;;
19733;SDS011;10018;51.230;7.860;2022-11-06T09:02:56;8.90;;;3.27;;
19733;SDS011;10018;51.230;7.860;2022-11-06T09:05:23;11.60;;;3.37;;
19733;SDS011;10018;51.230;7.860;2022-11-06T09:07:48;8.47;;;3.77;;
19733;SDS011;10018;51.230;7.860;2022-11-06T09:10:14;11.83;;;3.40;;
19733;SDS011;10018;51.230;7.860;2022-11-06T09:12:39;11.27;;;3.93;;
19733;SDS011;10018;51.230;7.860;2022-11-06T09:15:05;10.07;;;3.77;;
19733;SDS011;10018;51.230;7.860;2022-11-06T09:17:31;12.17;;;4.00;;
19733;SDS011;10018;51.230;7.860;2022-11-06T09:19:56;10.30;;;3.83;;
19733;SDS011;10018;51.230;7.860;2022-11-06T09:22:22;10.07;;;3.53;;
19733;SDS011;10018;51.230;7.860;2022-11-06T09:24:48;7.47;;;3.93;;
19733;SDS011;10018;51.230;7.860;2022-11-06T09:27:13;14.27;;;4.70;;
19733;SDS011;10018;51.230;7.860;2022-11-06T09:29:39;10.13;;;3.97;;
19733;SDS011;10018;51.230;7.860;2022-11-06T09:32:07;8.47;;;4.10;;
19733;SDS011;10018;51.230;7.860;2022-11-06T09:34:33;8.63;;;4.00;;
19733;SDS011;10018;51.230;7.860;2022-11-06T09:37:00;7.77;;;3.80;;
19733;SDS011;10018;51.230;7.860;2022-11-06T09:39:26;9.60;;;3.77;;
19733;SDS011;10018;51.230;7.860;2022-11-06T09:41:52;11.93;;;4.07;;
19733;SDS011;10018;51.230;7.860;2022-11-06T09:44:29;9.60;;;4.00;;
19733;SDS011;10018;51.230;7.860;2022-11-06T09:47:12;10.53;;;3.90;;
19733;SDS011;10018;51.230;7.860;2022-11-06T09:49:43;10.97;;;3.63;;
19733;SDS011;10018;51.230;7.860;2022-11-06T09:52:30;10.97;;;4.40;;
19733;SDS011;10018;51.230;7.860;2022-11-06T09:55:04;8.37;;;3.87;;
19733;SDS011;10018;51.230;7.860;2022-11-06T09:57:42;8.47;;;3.60;;
19733;SDS011;10018;51.230;7.860;2022-11-06T10:00:10;8.80;;;3.23;;
19733;SDS011;10018;51.230;7.860;2022-11-06T10:02:51;9.87;;;3.70;;
19733;SDS011;10018;51.230;7.860;2022-11-06T10:05:36;10.60;;;3.23;;
19733;SDS011;10018;51.230;7.860;2022-11-06T10:08:04;10.17;;;3.83;;
19733;SDS011;10018;51.230;7.860;2022-11-06T10:10:53;9.83;;;3.47;;
19733;SDS011;10018;51.230;7.860;2022-11-06T10:13:24;10.13;;;3.50;;
19733;SDS011;10018;51.230;7.860;2022-11-06T10:18:50;9.67;;;4.30;;
19733;SDS011;10018;51.230;7.860;2022-11-06T10:21:24;12.47;;;3.57;;
19733;SDS011;10018;51.230;7.860;2022-11-06T10:23:55;7.67;;;3.10;;
19733;SDS011;10018;51.230;7.860;2022-11-06T10:26:32;12.13;;;6.10;;
19733;SDS011;10018;51.230;7.860;2022-11-06T10:34:13;10.47;;;2.70;;
19733;SDS011;10018;51.230;7.860;2022-11-06T10:36:44;6.07;;;2.70;;
19733;SDS011;10018;51.230;7.860;2022-11-06T10:39:17;7.10;;;2.93;;
19733;SDS011;10018;51.230;7.860;2022-11-06T10:41:48;8.77;;;3.10;;
19733;SDS011;10018;51.230;7.860;2022-11-06T10:44:23;12.03;;;3.00;;
19733;SDS011;10018;51.230;7.860;2022-11-06T10:46:54;9.60;;;3.10;;
19733;SDS011;10018;51.230;7.860;2022-11-06T10:49:34;10.20;;;2.53;;
19733;SDS011;10018;51.230;7.860;2022-11-06T11:00:09;7.83;;;2.70;;
19733;SDS011;10018;51.230;7.860;2022-11-06T11:02:38;6.40;;;2.47;;
19733;SDS011;10018;51.230;7.860;2022-11-06T11:05:09;7.50;;;2.60;;
19733;SDS011;10018;51.230;7.860;2022-11-06T11:07:40;5.10;;;2.40;;
19733;SDS011;10018;51.230;7.860;2022-11-06T11:12:58;9.20;;;2.10;;
19733;SDS011;10018;51.230;7.860;2022-11-06T11:15:26;8.40;;;2.50;;
19733;SDS011;10018;51.230;7.860;2022-11-06T11:18:21;8.20;;;2.40;;
19733;SDS011;10018;51.230;7.860;2022-11-06T11:23:43;6.17;;;2.30;;
19733;SDS011;10018;51.230;7.860;2022-11-06T11:26:29;6.07;;;1.97;;
19733;SDS011;10018;51.230;7.860;2022-11-06T11:28:57;6.43;;;2.47;;
19733;SDS011;10018;51.230;7.860;2022-11-06T11:31:34;6.37;;;2.10;;
19733;SDS011;10018;51.230;7.860;2022-11-06T11:34:04;9.43;;;2.30;;
19733;SDS011;10018;51.230;7.860;2022-11-06T11:36:52;8.70;;;2.50;;
19733;SDS011;10018;51.230;7.860;2022-11-06T11:39:22;9.40;;;3.00;;
19733;SDS011;10018;51.230;7.860;2022-11-06T11:41:51;9.20;;;2.30;;
19733;SDS011;10018;51.230;7.860;2022-11-06T11:44:17;6.70;;;1.90;;
19733;SDS011;10018;51.230;7.860;2022-11-06T11:46:45;6.40;;;1.87;;
19733;SDS011;10018;51.230;7.860;2022-11-06T11:49:27;6.90;;;2.03;;
19733;SDS011;10018;51.230;7.860;2022-11-06T11:51:58;5.90;;;2.37;;
19733;SDS011;10018;51.230;7.860;2022-11-06T11:54:27;7.30;;;2.30;;
19733;SDS011;10018;51.230;7.860;2022-11-06T11:59:25;6.83;;;1.57;;
19733;SDS011;10018;51.230;7.860;2022-11-06T12:01:54;7.60;;;1.87;;
19733;SDS011;10018;51.230;7.860;2022-11-06T12:06:57;8.83;;;2.10;;
19733;SDS011;10018;51.230;7.860;2022-11-06T12:09:28;6.87;;;1.80;;
19733;SDS011;10018;51.230;7.860;2022-11-06T12:11:57;6.37;;;1.87;;
19733;SDS011;10018;51.230;7.860;2022-11-06T12:14:25;7.90;;;1.90;;
19733;SDS011;10018;51.230;7.860;2022-11-06T12:16:54;5.47;;;1.97;;
19733;SDS011;10018;51.230;7.860;2022-11-06T12:19:30;8.97;;;2.03;;
19733;SDS011;10018;51.230;7.860;2022-11-06T12:22:00;5.77;;;1.77;;
19733;SDS011;10018;51.230;7.860;2022-11-06T12:24:33;6.60;;;1.73;;
19733;SDS011;10018;51.230;7.860;2022-11-06T12:27:15;7.70;;;2.20;;
19733;SDS011;10018;51.230;7.860;2022-11-06T12:35:05;5.80;;;2.30;;
19733;SDS011;10018;51.230;7.860;2022-11-06T12:40:29;7.73;;;2.23;;
19733;SDS011;10018;51.230;7.860;2022-11-06T12:49:02;5.63;;;2.23;;
19733;SDS011;10018;51.230;7.860;2022-11-06T12:57:09;5.50;;;1.73;;
19733;SDS011;10018;51.230;7.860;2022-11-06T13:02:42;5.50;;;2.47;;
19733;SDS011;10018;51.230;7.860;2022-11-06T13:05:15;4.03;;;1.60;;
19733;SDS011;10018;51.230;7.860;2022-11-06T13:07:53;4.97;;;2.20;;
19733;SDS011;10018;51.230;7.860;2022-11-06T13:18:47;5.30;;;1.70;;
19733;SDS011;10018;51.230;7.860;2022-11-06T13:24:32;4.10;;;1.50;;
19733;SDS011;10018;51.230;7.860;2022-11-06T13:27:26;5.63;;;1.77;;
19733;SDS011;10018;51.230;7.860;2022-11-06T13:30:24;4.20;;;1.33;;
19733;SDS011;10018;51.230;7.860;2022-11-06T13:33:01;6.57;;;1.40;;
19733;SDS011;10018;51.230;7.860;2022-11-06T13:35:49;5.20;;;1.43;;
19733;SDS011;10018;51.230;7.860;2022-11-06T13:38:28;5.00;;;1.40;;
19733;SDS011;10018;51.230;7.860;2022-11-06T13:41:01;5.13;;;1.77;;
19733;SDS011;10018;51.230;7.860;2022-11-06T13:43:42;5.47;;;1.80;;
19733;SDS011;10018;51.230;7.860;2022-11-06T13:51:59;5.37;;;2.60;;
19733;SDS011;10018;51.230;7.860;2022-11-06T13:54:29;5.07;;;1.30;;
19733;SDS011;10018;51.230;7.860;2022-11-06T14:00:17;3.47;;;1.20;;
19733;SDS011;10018;51.230;7.860;2022-11-06T14:08:04;5.30;;;1.83;;
19733;SDS011;10018;51.230;7.860;2022-11-06T14:10:37;5.93;;;1.63;;
19733;SDS011;10018;51.230;7.860;2022-11-06T14:13:15;2.90;;;1.40;;
19733;SDS011;10018;51.230;7.860;2022-11-06T14:15:47;3.87;;;1.87;;
19733;SDS011;10018;51.230;7.860;2022-11-06T14:18:17;3.53;;;1.57;;
19733;SDS011;10018;51.230;7.860;2022-11-06T14:20:46;4.07;;;1.70;;
19733;SDS011;10018;51.230;7.860;2022-11-06T14:28:36;4.67;;;1.70;;
19733;SDS011;10018;51.230;7.860;2022-11-06T14:31:09;5.97;;;2.33;;
19733;SDS011;10018;51.230;7.860;2022-11-06T14:36:25;8.43;;;6.20;;
19733;SDS011;10018;51.230;7.860;2022-11-06T14:38:53;10.67;;;4.67;;
19733;SDS011;10018;51.230;7.860;2022-11-06T14:44:03;7.77;;;2.63;;
19733;SDS011;10018;51.230;7.860;2022-11-06T14:46:48;6.03;;;2.07;;
19733;SDS011;10018;51.230;7.860;2022-11-06T14:52:07;5.67;;;1.90;;
19733;SDS011;10018;51.230;7.860;2022-11-06T14:54:37;6.00;;;2.20;;
19733;SDS011;10018;51.230;7.860;2022-11-06T14:57:05;5.43;;;2.40;;
19733;SDS011;10018;51.230;7.860;2022-11-06T14:59:34;16.90;;;12.60;;
19733;SDS011;10018;51.230;7.860;2022-11-06T15:04:59;8.57;;;5.30;;
19733;SDS011;10018;51.230;7.860;2022-11-06T15:07:33;4.30;;;2.60;;
19733;SDS011;10018;51.230;7.860;2022-11-06T15:13:10;5.70;;;3.43;;
19733;SDS011;10018;51.230;7.860;2022-11-06T15:15:38;4.43;;;2.70;;
19733;SDS011;10018;51.230;7.860;2022-11-06T15:18:07;5.20;;;2.60;;
19733;SDS011;10018;51.230;7.860;2022-11-06T15:20:35;3.63;;;2.20;;
19733;SDS011;10018;51.230;7.860;2022-11-06T15:23:02;6.20;;;3.20;;
19733;SDS011;10018;51.230;7.860;2022-11-06T15:25:35;7.80;;;2.40;;
19733;SDS011;10018;51.230;7.860;2022-11-06T15:28:19;5.13;;;2.60;;
19733;SDS011;10018;51.230;7.860;2022-11-06T15:30:49;5.70;;;2.70;;
19733;SDS011;10018;51.230;7.860;2022-11-06T15:33:29;5.97;;;2.90;;
19733;SDS011;10018;51.230;7.860;2022-11-06T15:36:22;4.83;;;2.50;;
19733;SDS011;10018;51.230;7.860;2022-11-06T15:38:49;7.30;;;2.73;;
19733;SDS011;10018;51.230;7.860;2022-11-06T15:41:16;7.37;;;3.73;;
19733;SDS011;10018;51.230;7.860;2022-11-06T15:43:45;4.37;;;2.80;;
19733;SDS011;10018;51.230;7.860;2022-11-06T15:46:17;5.27;;;2.40;;
19733;SDS011;10018;51.230;7.860;2022-11-06T15:49:06;5.50;;;3.43;;
19733;SDS011;10018;51.230;7.860;2022-11-06T15:51:48;7.83;;;2.70;;
19733;SDS011;10018;51.230;7.860;2022-11-06T15:54:28;4.43;;;2.33;;
19733;SDS011;10018;51.230;7.860;2022-11-06T15:56:54;4.33;;;1.90;;
19733;SDS011;10018;51.230;7.860;2022-11-06T15:59:20;4.33;;;2.20;;
19733;SDS011;10018;51.230;7.860;2022-11-06T16:01:46;4.40;;;2.13;;
19733;SDS011;10018;51.230;7.860;2022-11-06T16:04:17;4.53;;;2.27;;
19733;SDS011;10018;51.230;7.860;2022-11-06T16:06:45;7.77;;;2.93;;
19733;SDS011;10018;51.230;7.860;2022-11-06T16:09:16;3.90;;;2.00;;
19733;SDS011;10018;51.230;7.860;2022-11-06T16:11:45;18.27;;;10.60;;
19733;SDS011;10018;51.230;7.860;2022-11-06T16:14:14;4.77;;;2.60;;
19733;SDS011;10018;51.230;7.860;2022-11-06T16:16:41;8.10;;;4.63;;
19733;SDS011;10018;51.230;7.860;2022-11-06T16:19:30;5.70;;;2.50;;
19733;SDS011;10018;51.230;7.860;2022-11-06T16:22:03;5.57;;;2.30;;
19733;SDS011;10018;51.230;7.860;2022-11-06T16:25:00;7.73;;;5.70;;
19733;SDS011;10018;51.230;7.860;2022-11-06T16:27:32;3.60;;;2.30;;
19733;SDS011;10018;51.230;7.860;2022-11-06T16:30:00;4.50;;;2.40;;
19733;SDS011;10018;51.230;7.860;2022-11-06T16:32:31;11.30;;;8.17;;
19733;SDS011;10018;51.230;7.860;2022-11-06T16:35:25;4.73;;;2.50;;
19733;SDS011;10018;51.230;7.860;2022-11-06T16:43:13;5.17;;;2.50;;
19733;SDS011;10018;51.230;7.860;2022-11-06T16:45:52;6.27;;;2.60;;
19733;SDS011;10018;51.230;7.860;2022-11-06T16:50:53;4.70;;;2.60;;
19733;SDS011;10018;51.230;7.860;2022-11-06T16:53:21;5.63;;;2.90;;
19733;SDS011;10018;51.230;7.860;2022-11-06T16:55:53;5.33;;;2.60;;
19733;SDS011;10018;51.230;7.860;2022-11-06T16:58:22;6.07;;;3.80;;
19733;SDS011;10018;51.230;7.860;2022-11-06T17:00:55;7.20;;;3.10;;
19733;SDS011;10018;51.230;7.860;2022-11-06T17:03:27;5.93;;;3.70;;
19733;SDS011;10018;51.230;7.860;2022-11-06T17:05:57;5.87;;;3.10;;
19733;SDS011;10018;51.230;7.860;2022-11-06T17:11:13;7.27;;;2.90;;
19733;SDS011;10018;51.230;7.860;2022-11-06T17:13:45;5.90;;;3.20;;